createdAt,value
2018-12-26T00:00:42.878Z,9.43
2018-12-26T00:02:47.005Z,13.27
2018-12-26T00:04:51.166Z,11.43
2018-12-26T00:07:04.791Z,10.63
2018-12-26T00:09:09.295Z,11.70
2018-12-26T00:11:13.759Z,14.17
2018-12-26T00:13:18.611Z,10.98
2018-12-26T00:15:24.390Z,9.50
2018-12-26T00:17:47.788Z,14.60
2018-12-26T00:20:11.071Z,8.57
2018-12-26T00:22:34.157Z,6.20
2018-12-26T00:24:57.215Z,9.23
2018-12-26T00:29:50.259Z,11.43
2018-12-26T00:32:06.807Z,9.30
2018-12-26T00:34:23.485Z,12.73
2018-12-26T00:36:39.712Z,12.43
2018-12-26T00:38:55.720Z,11.53
2018-12-26T00:41:11.811Z,9.27
2018-12-26T00:43:27.939Z,9.20
2018-12-26T00:45:44.300Z,7.00
2018-12-26T00:48:00.136Z,10.93
2018-12-26T00:50:16.199Z,8.93
2018-12-26T00:52:32.415Z,12.43
2018-12-26T00:54:48.336Z,13.83
2018-12-26T00:57:05.022Z,12.83
2018-12-26T00:59:20.988Z,12.35
2018-12-26T01:01:37.484Z,15.57
2018-12-26T01:03:53.918Z,12.53
2018-12-26T01:06:10.344Z,11.77
2018-12-26T01:08:26.395Z,11.50
2018-12-26T01:10:42.911Z,13.00
2018-12-26T01:15:16.502Z,16.53
2018-12-26T01:17:33.112Z,15.55
2018-12-26T01:19:48.936Z,17.03
2018-12-26T01:22:05.232Z,14.47
2018-12-26T01:24:21.554Z,14.90
2018-12-26T01:26:37.295Z,21.07
2018-12-26T01:28:53.791Z,14.93
2018-12-26T01:31:09.643Z,16.73
2018-12-26T01:33:25.379Z,15.47
2018-12-26T01:35:39.856Z,16.03
2018-12-26T01:38:04.091Z,17.17
2018-12-26T01:40:20.170Z,19.47
2018-12-26T01:42:35.889Z,17.43
2018-12-26T01:44:54.199Z,16.27
2018-12-26T01:47:11.035Z,15.50
2018-12-26T01:49:28.051Z,16.37
2018-12-26T01:51:44.345Z,21.30
2018-12-26T01:54:00.744Z,17.60
2018-12-26T01:56:17.011Z,18.87
2018-12-26T01:58:33.099Z,21.13
2018-12-26T02:00:49.067Z,17.53
2018-12-26T02:03:04.767Z,19.53
2018-12-26T02:05:21.314Z,17.48
2018-12-26T02:07:36.930Z,21.90
2018-12-26T02:09:53.145Z,25.32
2018-12-26T02:12:08.934Z,12.53
2018-12-26T02:14:24.761Z,15.27
2018-12-26T02:16:41.107Z,20.62
2018-12-26T02:18:57.420Z,18.23
2018-12-26T02:21:13.828Z,18.10
2018-12-26T02:23:30.007Z,18.55
2018-12-26T02:25:46.587Z,23.40
2018-12-26T02:28:03.137Z,20.20
2018-12-26T02:30:18.991Z,16.85
2018-12-26T02:32:35.226Z,19.73
2018-12-26T02:34:51.782Z,18.97
2018-12-26T02:37:08.493Z,19.90
2018-12-26T02:39:24.767Z,24.93
2018-12-26T02:41:41.755Z,19.70
2018-12-26T02:43:57.796Z,15.23
2018-12-26T02:46:14.364Z,19.13
2018-12-26T02:48:29.983Z,19.60
2018-12-26T02:50:45.843Z,19.73
2018-12-26T02:53:01.723Z,19.37
2018-12-26T02:55:18.058Z,19.40
2018-12-26T02:57:34.196Z,13.63
2018-12-26T02:59:50.706Z,18.97
2018-12-26T03:02:07.368Z,17.90
2018-12-26T03:04:23.517Z,19.53
2018-12-26T03:06:40.071Z,15.37
2018-12-26T03:08:55.725Z,17.25
2018-12-26T03:11:11.378Z,16.07
2018-12-26T03:13:27.236Z,24.10
2018-12-26T03:15:44.205Z,18.12
2018-12-26T03:18:00.205Z,16.20
2018-12-26T03:20:16.191Z,16.00
2018-12-26T03:22:32.448Z,15.27
2018-12-26T03:24:48.287Z,19.60
2018-12-26T03:27:04.004Z,17.33
2018-12-26T03:29:19.697Z,16.02
2018-12-26T03:31:35.870Z,12.67
2018-12-26T03:33:51.810Z,20.17
2018-12-26T03:36:08.289Z,15.53
2018-12-26T03:38:24.556Z,20.60
2018-12-26T03:40:40.648Z,19.60
2018-12-26T03:42:57.044Z,20.50
2018-12-26T03:45:12.428Z,14.87
2018-12-26T03:47:36.895Z,17.63
2018-12-26T03:50:00.343Z,14.40
2018-12-26T03:52:24.197Z,17.43
2018-12-26T03:54:48.112Z,17.20
2018-12-26T03:57:11.989Z,13.93
2018-12-26T04:02:20.490Z,16.23
2018-12-26T04:04:44.142Z,14.95
2018-12-26T04:07:07.525Z,16.83
2018-12-26T04:09:50.185Z,17.20
2018-12-26T04:12:14.543Z,19.00
2018-12-26T04:14:37.892Z,17.27
2018-12-26T04:17:01.057Z,15.03
2018-12-26T04:19:24.214Z,18.27
2018-12-26T04:21:47.828Z,19.65
2018-12-26T04:24:11.480Z,15.30
2018-12-26T04:26:35.615Z,18.80
2018-12-26T04:36:31.920Z,19.57
2018-12-26T04:38:47.783Z,15.60
2018-12-26T04:41:04.060Z,23.00
2018-12-26T04:43:20.266Z,19.70
2018-12-26T04:45:36.582Z,16.93
2018-12-26T04:47:53.146Z,18.67
2018-12-26T04:50:09.358Z,19.00
2018-12-26T04:52:25.817Z,20.43
2018-12-26T04:54:41.951Z,18.43
2018-12-26T04:56:58.224Z,19.63
2018-12-26T04:59:15.343Z,22.55
2018-12-26T05:03:49.107Z,17.40
2018-12-26T05:06:05.112Z,21.57
2018-12-26T05:08:21.731Z,22.40
2018-12-26T05:10:37.978Z,24.23
2018-12-26T05:12:54.334Z,22.52
2018-12-26T05:15:10.434Z,19.87
2018-12-26T05:17:27.635Z,24.60
2018-12-26T05:19:43.622Z,20.90
2018-12-26T05:22:00.244Z,17.25
2018-12-26T05:24:17.196Z,19.30
2018-12-26T05:26:33.661Z,21.13
2018-12-26T05:28:50.533Z,19.50
2018-12-26T05:31:06.969Z,20.10
2018-12-26T05:33:23.955Z,18.77
2018-12-26T05:35:40.139Z,15.73
2018-12-26T05:37:56.919Z,18.87
2018-12-26T05:40:12.659Z,19.17
2018-12-26T05:42:28.187Z,20.00
2018-12-26T05:44:43.716Z,21.33
2018-12-26T05:49:16.483Z,32.50
2018-12-26T05:51:32.873Z,30.87
2018-12-26T05:53:49.556Z,30.87
2018-12-26T05:56:05.584Z,30.60
2018-12-26T05:58:21.774Z,29.53
2018-12-26T06:00:37.755Z,28.73
2018-12-26T06:02:54.057Z,25.60
2018-12-26T06:05:10.523Z,37.10
2018-12-26T06:07:26.973Z,32.28
2018-12-26T06:09:43.140Z,26.20
2018-12-26T06:11:59.640Z,33.87
2018-12-26T06:14:15.882Z,28.05
2018-12-26T06:16:32.117Z,26.05
2018-12-26T06:18:47.785Z,31.20
2018-12-26T06:21:04.131Z,20.87
2018-12-26T06:23:19.782Z,30.87
2018-12-26T06:25:36.376Z,44.30
2018-12-26T06:27:52.468Z,43.50
2018-12-26T06:30:08.854Z,35.37
2018-12-26T06:32:25.673Z,37.60
2018-12-26T06:34:41.666Z,42.23
2018-12-26T06:36:58.487Z,35.53
2018-12-26T06:39:15.308Z,29.90
2018-12-26T06:41:32.023Z,46.80
2018-12-26T06:43:47.894Z,41.00
2018-12-26T06:46:03.873Z,50.10
2018-12-26T06:48:19.951Z,40.30
2018-12-26T06:50:37.035Z,34.17
2018-12-26T06:52:53.655Z,48.27
2018-12-26T06:55:09.676Z,29.13
2018-12-26T06:57:26.052Z,44.67
2018-12-26T06:59:41.992Z,40.77
2018-12-26T07:01:58.091Z,41.87
2018-12-26T07:04:14.425Z,38.63
2018-12-26T07:06:30.584Z,30.93
2018-12-26T07:08:47.323Z,36.57
2018-12-26T07:11:03.418Z,35.63
2018-12-26T07:13:20.139Z,36.63
2018-12-26T07:15:36.576Z,31.93
2018-12-26T07:17:52.801Z,37.13
2018-12-26T07:20:09.063Z,31.30
2018-12-26T07:22:25.859Z,28.00
2018-12-26T07:24:41.680Z,33.08
2018-12-26T07:26:57.684Z,35.10
2018-12-26T07:29:14.186Z,28.63
2018-12-26T07:31:31.073Z,40.33
2018-12-26T07:33:46.988Z,43.40
2018-12-26T07:36:03.156Z,43.13
2018-12-26T07:38:19.639Z,32.57
2018-12-26T07:40:35.969Z,44.40
2018-12-26T07:42:52.207Z,38.88
2018-12-26T07:45:08.985Z,42.23
2018-12-26T07:47:24.628Z,50.30
2018-12-26T07:49:41.363Z,39.98
2018-12-26T07:51:57.575Z,45.00
2018-12-26T07:54:13.407Z,32.20
2018-12-26T07:56:30.013Z,36.10
2018-12-26T07:58:46.794Z,33.38
2018-12-26T08:01:03.090Z,46.37
2018-12-26T08:03:19.511Z,51.50
2018-12-26T08:05:35.716Z,26.80
2018-12-26T08:07:51.607Z,29.80
2018-12-26T08:10:07.726Z,25.20
2018-12-26T08:12:24.439Z,27.20
2018-12-26T08:14:41.437Z,38.40
2018-12-26T08:16:57.356Z,33.70
2018-12-26T08:19:14.182Z,37.13
2018-12-26T08:21:29.874Z,39.33
2018-12-26T08:23:45.674Z,35.13
2018-12-26T08:26:01.555Z,37.90
2018-12-26T08:28:26.342Z,40.67
2018-12-26T08:30:35.818Z,33.90
2018-12-26T08:32:52.164Z,33.93
2018-12-26T08:35:09.002Z,32.43
2018-12-26T08:37:25.591Z,32.10
2018-12-26T08:39:42.304Z,31.03
2018-12-26T08:41:58.368Z,21.20
2018-12-26T08:44:14.932Z,35.67
2018-12-26T08:46:31.082Z,37.37
2018-12-26T08:48:48.048Z,36.47
2018-12-26T08:51:04.779Z,40.20
2018-12-26T08:53:20.640Z,34.67
2018-12-26T08:55:36.631Z,25.67
2018-12-26T08:57:53.187Z,29.47
2018-12-26T09:00:09.532Z,33.87
2018-12-26T09:02:26.211Z,20.45
2018-12-26T09:04:42.403Z,40.00
2018-12-26T09:06:58.304Z,31.77
2018-12-26T09:09:15.316Z,29.10
2018-12-26T09:11:31.661Z,29.10
2018-12-26T09:13:47.836Z,35.63
2018-12-26T09:16:04.257Z,31.60
2018-12-26T09:18:19.941Z,38.23
2018-12-26T09:20:36.517Z,23.60
2018-12-26T09:22:52.835Z,25.67
2018-12-26T09:25:09.451Z,29.20
2018-12-26T09:27:25.813Z,27.37
2018-12-26T09:29:42.592Z,20.23
2018-12-26T09:31:58.874Z,18.97
2018-12-26T09:34:14.659Z,20.17
2018-12-26T09:36:30.921Z,26.17
2018-12-26T09:38:47.563Z,21.47
2018-12-26T09:41:03.663Z,27.03
2018-12-26T09:43:19.347Z,28.13
2018-12-26T09:45:35.726Z,23.10
2018-12-26T09:47:51.507Z,21.63
2018-12-26T09:50:08.574Z,23.10
2018-12-26T09:52:24.899Z,27.20
2018-12-26T09:54:40.723Z,28.83
2018-12-26T09:56:57.339Z,23.53
2018-12-26T09:59:14.039Z,23.43
2018-12-26T10:01:30.645Z,20.80
2018-12-26T10:03:46.546Z,20.90
2018-12-26T10:06:03.039Z,29.80
2018-12-26T10:08:18.999Z,26.67
2018-12-26T10:10:35.879Z,26.23
2018-12-26T10:12:52.144Z,26.83
2018-12-26T10:15:08.346Z,24.37
2018-12-26T10:17:24.551Z,29.40
2018-12-26T10:19:41.187Z,27.83
2018-12-26T10:21:57.848Z,25.57
2018-12-26T10:24:13.936Z,21.57
2018-12-26T10:26:30.148Z,17.93
2018-12-26T10:28:46.730Z,24.27
2018-12-26T10:31:03.204Z,27.00
2018-12-26T10:33:19.448Z,37.77
2018-12-26T10:35:36.315Z,32.47
2018-12-26T10:37:52.199Z,20.93
2018-12-26T10:40:08.875Z,21.87
2018-12-26T10:42:25.120Z,23.70
2018-12-26T10:44:41.051Z,27.10
2018-12-26T10:46:58.019Z,14.97
2018-12-26T10:49:13.787Z,18.10
2018-12-26T10:51:30.691Z,22.35
2018-12-26T10:53:47.126Z,17.60
2018-12-26T10:56:03.571Z,16.93
2018-12-26T10:58:19.271Z,23.67
2018-12-26T11:00:35.231Z,21.27
2018-12-26T11:02:51.064Z,26.17
2018-12-26T11:05:07.010Z,20.43
2018-12-26T11:07:22.923Z,22.37
2018-12-26T11:09:40.120Z,18.15
2018-12-26T11:11:56.216Z,14.00
2018-12-26T11:14:13.211Z,21.57
2018-12-26T11:16:29.240Z,16.27
2018-12-26T11:18:45.582Z,16.83
2018-12-26T11:21:01.700Z,20.30
2018-12-26T11:23:18.283Z,19.90
2018-12-26T11:25:34.062Z,18.03
2018-12-26T11:27:50.467Z,16.77
2018-12-26T11:30:06.697Z,15.53
2018-12-26T11:32:23.332Z,15.90
2018-12-26T11:34:40.286Z,14.97
2018-12-26T11:36:56.745Z,14.23
2018-12-26T11:39:13.304Z,19.43
2018-12-26T11:41:27.723Z,23.53
2018-12-26T11:46:11.995Z,18.37
2018-12-26T11:48:27.602Z,18.63
2018-12-26T11:50:43.404Z,15.50
2018-12-26T11:52:59.447Z,18.87
2018-12-26T11:55:15.123Z,15.07
2018-12-26T11:57:31.589Z,15.72
2018-12-26T11:59:47.151Z,16.17
2018-12-26T12:02:03.339Z,25.75
2018-12-26T12:04:19.363Z,19.52
2018-12-26T12:06:35.218Z,15.43
2018-12-26T12:08:51.887Z,24.80
2018-12-26T12:11:08.055Z,23.60
2018-12-26T12:13:23.755Z,21.17
2018-12-26T12:15:39.310Z,20.10
2018-12-26T12:17:54.467Z,18.33
2018-12-26T12:22:47.039Z,18.00
2018-12-26T12:32:59.583Z,22.33
2018-12-26T12:35:23.468Z,21.77
2018-12-26T12:37:47.382Z,18.73
2018-12-26T12:40:11.583Z,14.63
2018-12-26T12:45:10.179Z,20.00
2018-12-26T12:47:34.568Z,22.10
2018-12-26T12:49:50.497Z,23.45
2018-12-26T12:52:06.119Z,24.40
2018-12-26T12:54:22.391Z,22.87
2018-12-26T12:56:38.683Z,18.17
2018-12-26T12:58:55.113Z,24.13
2018-12-26T13:01:10.831Z,27.87
2018-12-26T13:03:27.259Z,25.57
2018-12-26T13:05:43.112Z,26.30
2018-12-26T13:07:59.827Z,19.93
2018-12-26T13:10:16.116Z,15.03
2018-12-26T13:12:32.623Z,34.87
2018-12-26T13:14:49.207Z,28.17
2018-12-26T13:17:05.104Z,21.95
2018-12-26T13:19:20.896Z,32.03
2018-12-26T13:21:36.784Z,29.10
2018-12-26T13:23:53.105Z,24.97
2018-12-26T13:26:09.092Z,23.53
2018-12-26T13:28:25.944Z,27.73
2018-12-26T13:30:41.359Z,22.03
2018-12-26T13:32:57.066Z,23.95
2018-12-26T13:35:13.067Z,32.97
2018-12-26T13:37:29.490Z,41.30
2018-12-26T13:39:45.519Z,39.50
2018-12-26T13:42:01.516Z,41.70
2018-12-26T13:44:18.259Z,28.47
2018-12-26T13:46:34.304Z,36.93
2018-12-26T13:48:50.163Z,29.50
2018-12-26T13:51:07.020Z,31.37
2018-12-26T13:53:23.868Z,39.13
2018-12-26T13:55:40.851Z,42.05
2018-12-26T13:57:56.947Z,47.50
2018-12-26T14:00:12.984Z,47.90
2018-12-26T14:02:28.873Z,41.83
2018-12-26T14:04:44.725Z,53.90
2018-12-26T14:07:01.637Z,59.77
2018-12-26T14:09:17.505Z,56.60
2018-12-26T14:11:33.616Z,69.20
2018-12-26T14:13:50.127Z,48.80
2018-12-26T14:16:05.699Z,67.77
2018-12-26T14:18:22.215Z,58.85
2018-12-26T14:20:37.828Z,80.53
2018-12-26T14:22:54.165Z,67.90
2018-12-26T14:25:10.443Z,78.10
2018-12-26T14:27:29.507Z,82.10
2018-12-26T14:29:49.355Z,73.57
2018-12-26T14:32:06.073Z,72.30
2018-12-26T14:34:21.966Z,67.77
2018-12-26T14:36:38.185Z,77.53
2018-12-26T14:38:55.007Z,75.37
2018-12-26T14:41:10.894Z,75.97
2018-12-26T14:43:26.999Z,81.30
2018-12-26T14:45:43.679Z,67.57
2018-12-26T14:48:00.003Z,84.65
2018-12-26T14:50:16.561Z,72.13
2018-12-26T14:52:32.795Z,78.00
2018-12-26T14:54:49.179Z,65.30
2018-12-26T14:57:04.564Z,66.13
2018-12-26T14:59:20.669Z,81.72
2018-12-26T15:01:37.216Z,69.32
2018-12-26T15:03:52.904Z,67.63
2018-12-26T15:06:09.131Z,84.20
2018-12-26T15:08:25.971Z,62.88
2018-12-26T15:10:42.047Z,65.50
2018-12-26T15:12:59.074Z,73.73
2018-12-26T15:15:15.094Z,79.83
2018-12-26T15:17:30.930Z,68.42
2018-12-26T15:19:46.929Z,55.03
2018-12-26T15:22:03.407Z,70.93
2018-12-26T15:24:19.699Z,67.00
2018-12-26T15:26:35.878Z,57.07
2018-12-26T15:28:53.039Z,62.57
2018-12-26T15:31:08.832Z,59.90
2018-12-26T15:33:24.789Z,52.63
2018-12-26T15:35:40.503Z,61.23
2018-12-26T15:37:57.447Z,44.87
2018-12-26T15:40:13.867Z,54.33
2018-12-26T15:42:30.477Z,51.50
2018-12-26T15:44:46.953Z,44.43
2018-12-26T15:47:03.029Z,48.10
2018-12-26T15:49:18.930Z,39.07
2018-12-26T15:51:34.662Z,43.47
2018-12-26T15:53:51.510Z,61.13
2018-12-26T15:56:07.779Z,48.70
2018-12-26T15:58:24.168Z,51.57
2018-12-26T16:00:40.015Z,56.13
2018-12-26T16:02:55.699Z,52.20
2018-12-26T16:05:11.423Z,48.10
2018-12-26T16:07:27.748Z,55.43
2018-12-26T16:09:44.591Z,54.93
2018-12-26T16:12:00.783Z,55.03
2018-12-26T16:14:16.840Z,40.07
2018-12-26T16:16:33.143Z,53.33
2018-12-26T16:18:49.824Z,42.90
2018-12-26T16:21:06.264Z,53.97
2018-12-26T16:23:23.114Z,59.90
2018-12-26T16:25:38.997Z,57.62
2018-12-26T16:27:54.668Z,51.27
2018-12-26T16:30:10.655Z,46.93
2018-12-26T16:32:26.917Z,55.10
2018-12-26T16:34:43.503Z,52.43
2018-12-26T16:36:59.732Z,47.07
2018-12-26T16:39:15.443Z,42.77
2018-12-26T16:41:31.509Z,44.30
2018-12-26T16:43:47.500Z,49.63
2018-12-26T16:46:03.883Z,40.97
2018-12-26T16:48:20.309Z,54.53
2018-12-26T16:50:37.056Z,40.47
2018-12-26T16:52:53.079Z,59.00
2018-12-26T16:55:09.407Z,59.05
2018-12-26T16:57:25.687Z,61.20
2018-12-26T16:59:41.423Z,51.40
2018-12-26T17:01:58.155Z,56.63
2018-12-26T17:04:14.203Z,55.67
2018-12-26T17:06:29.150Z,54.17
2018-12-26T17:08:53.485Z,50.17
2018-12-26T17:11:17.071Z,52.23
2018-12-26T17:13:40.909Z,61.83
2018-12-26T17:18:34.687Z,63.73
2018-12-26T17:20:59.092Z,48.40
2018-12-26T17:28:25.927Z,75.60
2018-12-26T17:30:49.853Z,66.45
2018-12-26T17:33:13.255Z,77.53
2018-12-26T17:35:36.595Z,38.67
2018-12-26T17:38:00.651Z,63.23
2018-12-26T17:40:24.036Z,52.83
2018-12-26T17:43:06.984Z,47.97
2018-12-26T17:47:59.739Z,40.93
2018-12-26T17:50:42.588Z,52.83
2018-12-26T17:53:06.557Z,48.85
2018-12-26T17:55:49.583Z,56.77
2018-12-26T17:58:05.868Z,52.57
2018-12-26T18:00:22.736Z,44.33
2018-12-26T18:02:38.796Z,49.97
2018-12-26T18:04:55.607Z,45.67
2018-12-26T18:07:12.256Z,52.75
2018-12-26T18:09:28.117Z,55.50
2018-12-26T18:11:44.600Z,47.70
2018-12-26T18:14:00.908Z,37.13
2018-12-26T18:16:17.989Z,42.37
2018-12-26T18:18:34.040Z,36.45
2018-12-26T18:20:50.405Z,51.27
2018-12-26T18:23:06.823Z,34.15
2018-12-26T18:25:23.541Z,38.40
2018-12-26T18:27:39.539Z,45.10
2018-12-26T18:29:56.199Z,49.20
2018-12-26T18:32:12.238Z,38.35
2018-12-26T18:34:28.095Z,41.37
2018-12-26T18:36:44.227Z,40.03
2018-12-26T18:39:00.371Z,31.10
2018-12-26T18:41:16.168Z,41.00
2018-12-26T18:43:31.949Z,44.43
2018-12-26T18:45:47.978Z,38.50
2018-12-26T18:48:03.800Z,33.10
2018-12-26T18:50:20.158Z,41.60
2018-12-26T18:52:36.508Z,34.53
2018-12-26T18:54:53.250Z,40.00
2018-12-26T18:57:09.759Z,39.80
2018-12-26T18:59:25.908Z,34.40
2018-12-26T19:01:42.743Z,36.07
2018-12-26T19:03:57.685Z,29.90
2018-12-26T19:06:21.360Z,36.03
2018-12-26T19:08:45.094Z,34.20
2018-12-26T19:16:08.764Z,32.93
2018-12-26T19:23:50.899Z,34.33
2018-12-26T19:26:14.810Z,30.72
2018-12-26T19:28:37.865Z,30.53
2018-12-26T19:31:01.088Z,32.07
2018-12-26T19:38:28.800Z,32.20
2018-12-26T19:40:52.246Z,37.55
2018-12-26T19:43:15.663Z,32.03
2018-12-26T19:45:58.561Z,36.03
2018-12-26T19:53:41.154Z,34.37
2018-12-26T19:56:05.117Z,38.33
2018-12-26T19:58:21.477Z,37.10
2018-12-26T20:00:37.787Z,42.07
2018-12-26T20:02:53.591Z,35.03
2018-12-26T20:05:09.459Z,43.30
2018-12-26T20:07:25.295Z,33.33
2018-12-26T20:09:41.611Z,38.20
2018-12-26T20:11:57.758Z,21.13
2018-12-26T20:14:13.832Z,30.73
2018-12-26T20:16:29.811Z,34.73
2018-12-26T20:18:45.903Z,31.93
2018-12-26T20:21:02.756Z,42.23
2018-12-26T20:23:18.892Z,36.63
2018-12-26T20:25:34.570Z,34.30
2018-12-26T20:27:50.278Z,26.50
2018-12-26T20:30:06.349Z,30.25
2018-12-26T20:32:22.246Z,31.03
2018-12-26T20:34:37.868Z,27.20
2018-12-26T20:36:54.337Z,32.83
2018-12-26T20:39:10.671Z,26.53
2018-12-26T20:41:26.137Z,37.23
2018-12-26T20:43:42.070Z,32.10
2018-12-26T20:45:58.651Z,31.97
2018-12-26T20:48:17.405Z,31.53
2018-12-26T20:50:34.083Z,34.92
2018-12-26T20:52:49.676Z,36.37
2018-12-26T20:55:05.635Z,29.52
2018-12-26T20:57:22.068Z,38.27
2018-12-26T20:59:38.559Z,31.10
2018-12-26T21:01:54.947Z,27.73
2018-12-26T21:04:09.456Z,34.73
2018-12-26T21:06:32.803Z,34.45
2018-12-26T21:08:56.120Z,35.25
2018-12-26T21:16:30.750Z,38.00
2018-12-26T21:18:44.045Z,32.93
2018-12-26T21:21:07.743Z,35.63
2018-12-26T21:26:01.930Z,30.27
2018-12-26T21:28:25.370Z,34.20
2018-12-26T21:30:29.555Z,29.07
2018-12-26T21:32:34.080Z,31.00
2018-12-26T21:34:38.451Z,29.77
2018-12-26T21:36:43.426Z,29.23
2018-12-26T21:38:48.467Z,32.10
2018-12-26T21:40:52.987Z,37.27
2018-12-26T21:42:58.010Z,27.65
2018-12-26T21:45:03.531Z,39.33
2018-12-26T21:47:08.356Z,33.17
2018-12-26T21:49:12.588Z,42.87
2018-12-26T21:51:17.835Z,41.00
2018-12-26T21:53:22.556Z,29.37
2018-12-26T21:55:26.795Z,29.45
2018-12-26T21:57:32.236Z,38.90
2018-12-26T21:59:36.941Z,37.50
2018-12-26T22:01:41.516Z,36.48
2018-12-26T22:03:46.302Z,38.80
2018-12-26T22:05:51.519Z,37.30
2018-12-26T22:07:56.820Z,47.20
2018-12-26T22:10:02.138Z,45.93
2018-12-26T22:12:07.353Z,42.77
2018-12-26T22:14:11.815Z,38.93
2018-12-26T22:16:16.408Z,25.05
2018-12-26T22:18:21.056Z,33.90
2018-12-26T22:20:25.939Z,36.83
2018-12-26T22:22:30.486Z,33.77
2018-12-26T22:24:35.994Z,43.30
2018-12-26T22:26:43.356Z,35.00
2018-12-26T22:28:48.110Z,38.88
2018-12-26T22:30:52.223Z,36.70
2018-12-26T22:32:57.494Z,37.00
2018-12-26T22:35:02.001Z,27.23
2018-12-26T22:37:06.872Z,29.67
2018-12-26T22:39:11.039Z,31.55
2018-12-26T22:41:15.565Z,40.95
2018-12-26T22:43:20.241Z,40.70
2018-12-26T22:45:24.833Z,35.88
2018-12-26T22:47:29.708Z,42.73
2018-12-26T22:49:35.440Z,48.20
2018-12-26T22:51:42.066Z,45.15
2018-12-26T22:53:46.416Z,46.10
2018-12-26T22:55:50.587Z,37.60
2018-12-26T22:57:54.583Z,33.43
2018-12-26T23:00:00.087Z,42.50
2018-12-26T23:02:05.282Z,36.97
2018-12-26T23:04:10.096Z,45.10
2018-12-26T23:06:14.564Z,41.87
2018-12-26T23:08:19.387Z,39.58
2018-12-26T23:10:24.143Z,41.40
2018-12-26T23:12:28.529Z,44.57
2018-12-26T23:14:32.916Z,38.13
2018-12-26T23:16:37.319Z,36.03
2018-12-26T23:18:41.743Z,33.87
2018-12-26T23:20:46.047Z,41.10
2018-12-26T23:22:50.598Z,40.60
2018-12-26T23:24:54.790Z,39.13
2018-12-26T23:26:59.554Z,62.53
2018-12-26T23:29:04.668Z,49.10
2018-12-26T23:31:09.188Z,42.53
2018-12-26T23:33:14.346Z,49.13
2018-12-26T23:35:18.828Z,55.47
2018-12-26T23:37:25.200Z,56.80
2018-12-26T23:39:29.893Z,60.47
2018-12-26T23:41:34.709Z,49.40
2018-12-26T23:43:39.213Z,45.67
2018-12-26T23:45:44.260Z,47.53
2018-12-26T23:47:49.023Z,47.25
2018-12-26T23:49:54.267Z,57.00
2018-12-26T23:51:59.302Z,51.80
2018-12-26T23:54:04.027Z,54.70
2018-12-26T23:56:08.754Z,65.60
2018-12-26T23:58:13.477Z,44.45
